Time;durP1;ratioP1;P1;durP2;ratioP2;P2;SDS_P1;SDS_P2;PMS_P1;PMS_P2;Temp;Humidity;BMP_temperature;BMP_pressure;BME280_temperature;BME280_humidity;BME280_pressure;Samples;Min_cycle;Max_cycle;Signal;HPM_P1;HPM_P2
2024/01/18 18:12:54;;;;;;;;;;;;;;;13.07;87.32;98863.20;106529;1253;60400;-84
2024/01/18 18:15:34;;;;;;;;;;;;;;;13.12;86.89;98864.61;106546;1253;73341;-84
2024/01/18 18:18:25;;;;;;;;;;;;;;;13.18;86.19;98861.98;106877;1253;68441;-85
2024/01/18 18:20:59;;;;;;;;;;;;;;;13.09;86.40;98860.25;106686;1253;74211;-85
2024/01/18 18:23:39;;;;;;;;;;;;;;;13.09;86.50;98856.20;106651;1256;60984;-84
2024/01/18 18:26:19;;;;;;;;;;;;;;;13.09;86.60;98851.39;106719;1256;60885;-84
2024/01/18 18:28:54;;;;;;;;;;;;;;;13.09;86.66;98853.90;106740;1257;75814;-84
2024/01/18 18:31:34;;;;;;;;;;;;;;;13.07;86.75;98862.04;106519;1253;70571;-84
2024/01/18 18:34:07;;;;;;;;;;;;;;;13.11;86.94;98860.11;106581;1257;73777;-82
2024/01/18 18:36:55;;;;;;;;;;;;;;;13.23;86.47;98853.65;106451;1253;63804;-86
2024/01/18 18:39:35;;;;;;;;;;;;;;;13.30;86.14;98856.75;107015;1253;62128;-83
2024/01/18 18:42:09;;;;;;;;;;;;;;;13.34;85.84;98856.20;106489;1253;76071;-84
2024/01/18 18:44:49;;;;;;;;;;;;;;;13.29;86.34;98853.89;106604;1253;70436;-86
2024/01/18 18:47:29;;;;;;;;;;;;;;;13.26;87.15;98854.07;106607;1253;73988;-85
2024/01/18 18:49:59;;;;;;;;;;;;;;;13.27;87.25;98853.34;106742;1253;61386;-86
2024/01/18 18:52:39;;;;;;;;;;;;;;;13.34;86.54;98850.23;106500;1253;61917;-84
2024/01/18 18:55:19;;;;;;;;;;;;;;;13.36;86.09;98848.79;106658;1253;75598;-85
2024/01/18 18:57:53;;;;;;;;;;;;;;;13.34;86.48;98848.48;106477;1253;69677;-85
2024/01/18 19:00:33;;;;;;;;;;;;;;;13.27;87.42;98850.48;106676;1253;73607;-85
2024/01/18 19:03:07;;;;;;;;;;;;;;;13.14;88.53;98850.50;106559;1253;62868;-86
2024/01/18 19:05:46;;;;;;;;;;;;;;;13.29;87.41;98844.64;106632;1253;60384;-87
2024/01/18 19:08:28;;;;;;;;;;;;;;;13.30;87.75;98845.80;106553;1253;74824;-85
2024/01/18 19:11:02;;;;;;;;;;;;;;;13.31;87.63;98848.00;107020;1257;71577;-87
2024/01/18 19:13:42;;;;;;;;;;;;;;;13.12;88.71;98847.20;106827;1253;74524;-84
2024/01/18 19:16:22;;;;;;;;;;;;;;;12.92;90.49;98847.98;106584;1254;60984;-85
2024/01/18 19:18:56;;;;;;;;;;;;;;;12.98;90.64;98850.28;106509;1256;60339;-85
2024/01/18 19:21:36;;;;;;;;;;;;;;;13.00;90.62;98850.91;106501;1253;74887;-84
2024/01/18 19:24:17;;;;;;;;;;;;;;;13.05;89.79;98846.77;106850;1252;70774;-85
2024/01/18 19:26:51;;;;;;;;;;;;;;;13.01;90.31;98836.98;106871;1256;74629;-85
2024/01/18 19:29:31;;;;;;;;;;;;;;;13.14;89.49;98834.80;106550;1253;62859;-84
2024/01/18 19:32:05;;;;;;;;;;;;;;;13.10;89.24;98831.98;106725;1253;60602;-83
2024/01/18 19:34:44;;;;;;;;;;;;;;;13.18;88.71;98830.08;106656;1258;74949;-86
2024/01/18 19:37:24;;;;;;;;;;;;;;;13.13;89.32;98834.77;106465;1253;69422;-86
2024/01/18 19:39:58;;;;;;;;;;;;;;;13.14;89.80;98836.29;106583;1253;73678;-85
2024/01/18 19:42:38;;;;;;;;;;;;;;;13.12;89.94;98836.88;106556;1257;62530;-87
2024/01/18 19:45:18;;;;;;;;;;;;;;;13.15;89.97;98836.41;106509;1253;60634;-86
2024/01/18 19:47:52;;;;;;;;;;;;;;;13.19;89.60;98838.30;106574;1253;73619;-85
2024/01/18 19:50:33;;;;;;;;;;;;;;;13.21;89.41;98835.45;106558;1258;68942;-85
2024/01/18 19:53:13;;;;;;;;;;;;;;;13.27;88.82;98837.13;106433;1253;73797;-85
2024/01/18 19:55:48;;;;;;;;;;;;;;;13.25;89.09;98838.20;106534;1254;62083;-86
2024/01/18 19:58:27;;;;;;;;;;;;;;;12.98;91.13;98841.60;106495;1253;61195;-86
2024/01/18 20:01:02;;;;;;;;;;;;;;;12.98;91.60;98840.70;106659;1258;75825;-85
2024/01/18 20:03:42;;;;;;;;;;;;;;;13.03;91.39;98845.20;106567;1253;69619;-87
2024/01/18 20:06:22;;;;;;;;;;;;;;;13.01;91.77;98844.04;106672;1253;74946;-85
2024/01/18 20:08:57;;;;;;;;;;;;;;;12.92;92.90;98853.20;106557;1253;61992;-86
2024/01/18 20:11:36;;;;;;;;;;;;;;;12.93;93.24;98858.79;106822;1256;61927;-87
2024/01/18 20:14:17;;;;;;;;;;;;;;;13.02;92.75;98859.59;106468;1253;75761;-86
2024/01/18 20:16:51;;;;;;;;;;;;;;;12.98;92.71;98856.69;106688;1251;69946;-85
2024/01/18 20:19:31;;;;;;;;;;;;;;;13.06;92.16;98860.35;106593;1253;74826;-85
2024/01/18 20:22:10;;;;;;;;;;;;;;;12.93;92.33;98856.45;106541;1256;61837;-84
2024/01/18 20:24:44;;;;;;;;;;;;;;;13.01;91.59;98851.63;106566;1258;60986;-86
2024/01/18 20:27:24;;;;;;;;;;;;;;;12.78;92.84;98847.55;106639;1253;75785;-85
2024/01/18 20:29:59;;;;;;;;;;;;;;;12.69;93.72;98847.86;106499;1257;69923;-85
2024/01/18 20:32:39;;;;;;;;;;;;;;;12.57;94.27;98850.74;106498;1253;76195;-86
2024/01/18 20:35:19;;;;;;;;;;;;;;;12.48;95.01;98855.21;106640;1256;60355;-85
2024/01/18 20:37:53;;;;;;;;;;;;;;;12.51;94.76;98857.30;106628;1253;60297;-84
2024/01/18 20:40:33;;;;;;;;;;;;;;;12.56;94.56;98858.23;106870;1253;76514;-85
2024/01/18 20:43:13;;;;;;;;;;;;;;;12.50;94.96;98861.05;106559;1252;68255;-86
2024/01/18 20:45:46;;;;;;;;;;;;;;;12.43;95.68;98867.80;106790;1253;75091;-85
2024/01/18 20:48:26;;;;;;;;;;;;;;;12.40;95.93;98868.30;106561;1253;62449;-85
2024/01/18 20:51:00;;;;;;;;;;;;;;;12.50;95.24;98867.23;106886;1253;60873;-86
2024/01/18 20:53:34;;;;;;;;;;;;;;;12.63;94.21;98864.77;106507;1259;75937;-87
2024/01/18 20:56:17;;;;;;;;;;;;;;;12.62;94.24;98867.05;106607;1253;70588;-86
2024/01/18 20:58:50;;;;;;;;;;;;;;;12.47;95.23;98865.30;106780;1253;75120;-85
2024/01/18 21:01:30;;;;;;;;;;;;;;;12.42;95.76;98869.16;106754;1253;63104;-85
2024/01/18 21:04:10;;;;;;;;;;;;;;;12.41;96.00;98871.11;106659;1253;60369;-85
2024/01/18 21:06:38;;;;;;;;;;;;;;;12.50;95.49;98871.21;106600;1252;74806;-85
2024/01/18 21:09:18;;;;;;;;;;;;;;;12.62;94.47;98865.50;106663;1253;69342;-85
2024/01/18 21:11:58;;;;;;;;;;;;;;;12.68;93.75;98864.73;106741;1253;74611;-85
2024/01/18 21:14:26;;;;;;;;;;;;;;;12.65;93.86;98867.02;106442;1255;61194;-85
2024/01/18 21:17:05;;;;;;;;;;;;;;;12.47;95.34;98868.45;106621;1253;61633;-85
2024/01/18 21:19:33;;;;;;;;;;;;;;;12.46;95.50;98864.49;106527;1253;75798;-85
2024/01/18 21:22:13;;;;;;;;;;;;;;;12.44;95.87;98866.06;106582;1256;69615;-84
2024/01/18 21:24:53;;;;;;;;;;;;;;;12.43;95.96;98866.08;106721;1253;73716;-86
2024/01/18 21:27:27;;;;;;;;;;;;;;;12.47;95.98;98865.69;106429;1254;62373;-87
2024/01/18 21:30:01;;;;;;;;;;;;;;;12.44;96.17;98865.02;106589;1253;61893;-85
2024/01/18 21:32:44;;;;;;;;;;;;;;;12.37;96.62;98861.39;106940;1253;76110;-86
2024/01/18 21:35:22;;;;;;;;;;;;;;;12.40;96.60;98861.28;106749;1253;67121;-86
2024/01/18 21:37:56;;;;;;;;;;;;;;;12.43;96.41;98863.73;106415;1253;72095;-87
2024/01/18 21:40:30;;;;;;;;;;;;;;;12.45;96.08;98860.15;106537;1259;63622;-87
2024/01/18 21:43:09;;;;;;;;;;;;;;;12.39;96.18;98857.86;106777;1257;62190;-86
2024/01/18 21:45:37;;;;;;;;;;;;;;;12.36;96.23;98852.18;106525;1257;76360;-86
2024/01/18 21:48:05;;;;;;;;;;;;;;;12.37;95.98;98847.86;106338;1253;70286;-86
2024/01/18 21:50:41;;;;;;;;;;;;;;;12.29;96.69;98846.64;106578;1256;73900;-87
2024/01/18 21:53:19;;;;;;;;;;;;;;;12.28;97.06;98847.48;106573;1260;60681;-85
2024/01/18 21:55:53;;;;;;;;;;;;;;;12.28;97.35;98845.91;106686;1253;60407;-87
2024/01/18 21:58:33;;;;;;;;;;;;;;;12.24;97.77;98841.67;106337;1258;73969;-86
2024/01/18 22:01:06;;;;;;;;;;;;;;;12.25;97.82;98841.82;106558;1253;68379;-85
2024/01/18 22:03:40;;;;;;;;;;;;;;;12.23;97.90;98838.28;106136;1254;75021;-85
2024/01/18 22:06:20;;;;;;;;;;;;;;;12.16;98.17;98839.16;106291;1254;60407;-85
2024/01/18 22:08:48;;;;;;;;;;;;;;;12.10;98.58;98837.58;106782;1253;61815;-87
2024/01/18 22:11:16;;;;;;;;;;;;;;;12.07;98.60;98832.15;106254;1254;76435;-86
2024/01/18 22:13:49;;;;;;;;;;;;;;;12.12;98.15;98829.13;106481;1253;67430;-86
2024/01/18 22:16:23;;;;;;;;;;;;;;;12.01;98.80;98827.55;106490;1253;71377;-85
2024/01/18 22:18:58;;;;;;;;;;;;;;;12.02;98.75;98820.39;106621;1254;61817;-85
2024/01/18 22:21:31;;;;;;;;;;;;;;;12.07;98.19;98822.39;106469;1257;60258;-84
2024/01/18 22:24:11;;;;;;;;;;;;;;;12.10;97.89;98823.21;106420;1257;74346;-84
2024/01/18 22:26:52;;;;;;;;;;;;;;;12.26;96.85;98817.04;106490;1259;68351;-85
2024/01/18 22:29:26;;;;;;;;;;;;;;;12.32;95.96;98818.52;106497;1256;71316;-84
2024/01/18 22:32:00;;;;;;;;;;;;;;;12.28;96.08;98819.00;106388;1257;60542;-84
2024/01/18 22:34:33;;;;;;;;;;;;;;;12.23;96.47;98819.25;106322;1253;59251;-85
2024/01/18 22:37:07;;;;;;;;;;;;;;;12.23;96.72;98818.86;106622;1253;73949;-85
2024/01/18 22:39:41;;;;;;;;;;;;;;;12.22;96.54;98820.48;106373;1253;68544;-84
2024/01/18 22:42:15;;;;;;;;;;;;;;;12.30;96.17;98813.06;106516;1253;72722;-84
2024/01/18 22:44:54;;;;;;;;;;;;;;;12.23;96.33;98815.27;106662;1257;60429;-84
2024/01/18 22:47:34;;;;;;;;;;;;;;;12.21;96.68;98817.16;106449;1259;63349;-85
2024/01/18 22:50:02;;;;;;;;;;;;;;;12.31;95.99;98815.21;106383;1258;73844;-85
2024/01/18 22:52:42;;;;;;;;;;;;;;;12.34;95.69;98818.84;106582;1259;67107;-85
2024/01/18 22:55:16;;;;;;;;;;;;;;;12.33;95.66;98823.66;106502;1254;73107;-84
2024/01/18 22:57:44;;;;;;;;;;;;;;;12.27;96.31;98826.45;106543;1253;61702;-85
2024/01/18 23:00:18;;;;;;;;;;;;;;;12.29;96.45;98831.23;106654;1253;60342;-86
2024/01/18 23:02:52;;;;;;;;;;;;;;;12.39;95.77;98828.02;106860;1253;72108;-85
2024/01/18 23:05:31;;;;;;;;;;;;;;;12.40;95.44;98826.35;106486;1254;68359;-85
2024/01/18 23:08:11;;;;;;;;;;;;;;;12.40;95.05;98827.61;106360;1257;71132;-86
2024/01/18 23:10:44;;;;;;;;;;;;;;;12.43;94.95;98823.68;106644;1257;60528;-86
2024/01/18 23:13:23;;;;;;;;;;;;;;;12.48;94.47;98830.91;106581;1254;60350;-85
2024/01/18 23:15:59;;;;;;;;;;;;;;;12.44;94.76;98830.38;106438;1254;73864;-86
2024/01/18 23:18:33;;;;;;;;;;;;;;;12.44;95.01;98829.96;106619;1254;68316;-85
2024/01/18 23:21:09;;;;;;;;;;;;;;;12.46;95.04;98828.55;106506;1254;72770;-86
2024/01/18 23:23:43;;;;;;;;;;;;;;;12.48;94.56;98828.64;106765;1255;60530;-85
2024/01/18 23:26:23;;;;;;;;;;;;;;;12.44;94.78;98824.96;106675;1253;60453;-84
2024/01/18 23:28:57;;;;;;;;;;;;;;;12.50;94.59;98823.48;106431;1257;74311;-84
2024/01/18 23:31:29;;;;;;;;;;;;;;;12.54;93.99;98825.42;106575;1259;69245;-83
2024/01/18 23:34:10;;;;;;;;;;;;;;;12.55;93.92;98823.90;106579;1254;72697;-84
2024/01/18 23:36:50;;;;;;;;;;;;;;;12.63;93.17;98824.34;106481;1253;60515;-84
2024/01/18 23:39:22;;;;;;;;;;;;;;;12.67;92.69;98822.92;106438;1258;60516;-85
2024/01/18 23:41:56;;;;;;;;;;;;;;;12.69;92.21;98822.81;106460;1260;72650;-86
2024/01/18 23:44:30;;;;;;;;;;;;;;;12.65;92.32;98822.39;106555;1257;68316;-84
2024/01/18 23:47:09;;;;;;;;;;;;;;;12.62;92.55;98822.34;106451;1253;71457;-84
2024/01/18 23:49:44;;;;;;;;;;;;;;;12.55;92.94;98823.80;106633;1254;61666;-84
2024/01/18 23:52:13;;;;;;;;;;;;;;;12.39;94.08;98824.90;106636;1257;60487;-84
2024/01/18 23:54:52;;;;;;;;;;;;;;;12.31;94.49;98832.48;106382;1258;73865;-84
2024/01/18 23:57:32;;;;;;;;;;;;;;;12.37;94.31;98834.33;106585;1254;67293;-86
